sensor_id;sensor_type;location;lat;lon;timestamp;temperature;humidity
19220;DHT22;9744;49.364;7.484;2023-11-18T00:01:53;4.80;99.90
19220;DHT22;9744;49.364;7.484;2023-11-18T00:04:20;4.90;99.90
19220;DHT22;9744;49.364;7.484;2023-11-18T00:06:49;4.90;99.90
19220;DHT22;9744;49.364;7.484;2023-11-18T00:09:16;4.80;99.90
19220;DHT22;9744;49.364;7.484;2023-11-18T00:11:43;4.80;99.90
19220;DHT22;9744;49.364;7.484;2023-11-18T00:14:12;4.80;99.90
19220;DHT22;9744;49.364;7.484;2023-11-18T00:16:39;4.80;99.90
19220;DHT22;9744;49.364;7.484;2023-11-18T00:23:01;4.90;99.90
19220;DHT22;9744;49.364;7.484;2023-11-18T00:25:32;4.80;99.90
19220;DHT22;9744;49.364;7.484;2023-11-18T00:28:01;4.80;99.90
19220;DHT22;9744;49.364;7.484;2023-11-18T00:30:30;4.70;99.90
19220;DHT22;9744;49.364;7.484;2023-11-18T00:32:58;4.80;99.90
19220;DHT22;9744;49.364;7.484;2023-11-18T00:35:25;4.70;99.90
19220;DHT22;9744;49.364;7.484;2023-11-18T00:37:52;4.70;99.90
19220;DHT22;9744;49.364;7.484;2023-11-18T00:40:21;4.70;99.90
19220;DHT22;9744;49.364;7.484;2023-11-18T00:42:48;4.70;99.90
19220;DHT22;9744;49.364;7.484;2023-11-18T00:45:15;4.60;99.90
19220;DHT22;9744;49.364;7.484;2023-11-18T00:47:45;4.50;99.90
19220;DHT22;9744;49.364;7.484;2023-11-18T00:50:12;4.60;99.90
19220;DHT22;9744;49.364;7.484;2023-11-18T00:52:39;4.60;99.90
19220;DHT22;9744;49.364;7.484;2023-11-18T00:55:07;4.50;99.90
19220;DHT22;9744;49.364;7.484;2023-11-18T00:57:36;4.50;99.90
19220;DHT22;9744;49.364;7.484;2023-11-18T01:00:06;4.60;99.90
19220;DHT22;9744;49.364;7.484;2023-11-18T01:02:33;4.50;99.90
19220;DHT22;9744;49.364;7.484;2023-11-18T01:05:02;4.50;99.90
19220;DHT22;9744;49.364;7.484;2023-11-18T01:07:30;4.60;99.90
19220;DHT22;9744;49.364;7.484;2023-11-18T01:09:57;4.60;99.90
19220;DHT22;9744;49.364;7.484;2023-11-18T01:12:24;4.60;99.90
19220;DHT22;9744;49.364;7.484;2023-11-18T01:14:51;4.60;99.90
19220;DHT22;9744;49.364;7.484;2023-11-18T01:17:18;4.60;99.90
19220;DHT22;9744;49.364;7.484;2023-11-18T01:19:47;4.60;99.90
19220;DHT22;9744;49.364;7.484;2023-11-18T01:22:16;4.70;99.90
19220;DHT22;9744;49.364;7.484;2023-11-18T01:24:44;4.70;99.90
19220;DHT22;9744;49.364;7.484;2023-11-18T01:27:12;4.70;99.90
19220;DHT22;9744;49.364;7.484;2023-11-18T01:29:40;4.60;99.90
19220;DHT22;9744;49.364;7.484;2023-11-18T01:32:09;4.50;99.90
19220;DHT22;9744;49.364;7.484;2023-11-18T01:34:38;4.60;99.90
19220;DHT22;9744;49.364;7.484;2023-11-18T01:37:10;4.60;99.90
19220;DHT22;9744;49.364;7.484;2023-11-18T01:39:40;4.60;99.90
19220;DHT22;9744;49.364;7.484;2023-11-18T01:42:07;4.60;99.90
19220;DHT22;9744;49.364;7.484;2023-11-18T01:44:35;4.60;99.90
19220;DHT22;9744;49.364;7.484;2023-11-18T01:47:03;4.60;99.90
19220;DHT22;9744;49.364;7.484;2023-11-18T01:49:32;4.60;99.90
19220;DHT22;9744;49.364;7.484;2023-11-18T01:52:03;4.50;99.90
19220;DHT22;9744;49.364;7.484;2023-11-18T01:54:33;4.60;99.90
19220;DHT22;9744;49.364;7.484;2023-11-18T01:57:03;4.50;99.90
19220;DHT22;9744;49.364;7.484;2023-11-18T01:59:32;4.50;99.90
19220;DHT22;9744;49.364;7.484;2023-11-18T02:07:41;4.40;99.90
19220;DHT22;9744;49.364;7.484;2023-11-18T02:10:39;4.40;99.90
19220;DHT22;9744;49.364;7.484;2023-11-18T02:14:13;4.40;99.90
19220;DHT22;9744;49.364;7.484;2023-11-18T02:30:38;4.30;99.90
19220;DHT22;9744;49.364;7.484;2023-11-18T02:34:00;4.30;99.90
19220;DHT22;9744;49.364;7.484;2023-11-18T02:37:32;4.40;99.90
19220;DHT22;9744;49.364;7.484;2023-11-18T02:44:04;4.30;99.90
19220;DHT22;9744;49.364;7.484;2023-11-18T02:46:58;4.00;99.90
19220;DHT22;9744;49.364;7.484;2023-11-18T02:50:12;4.20;99.90
19220;DHT22;9744;49.364;7.484;2023-11-18T02:53:29;4.60;99.90
19220;DHT22;9744;49.364;7.484;2023-11-18T02:56:02;4.10;99.90
19220;DHT22;9744;49.364;7.484;2023-11-18T02:59:06;4.10;99.90
19220;DHT22;9744;49.364;7.484;2023-11-18T03:23:49;4.10;99.90
19220;DHT22;9744;49.364;7.484;2023-11-18T03:26:24;4.10;99.90
19220;DHT22;9744;49.364;7.484;2023-11-18T03:29:08;5.80;99.90
19220;DHT22;9744;49.364;7.484;2023-11-18T03:32:11;4.00;99.90
19220;DHT22;9744;49.364;7.484;2023-11-18T03:34:55;4.00;99.90
19220;DHT22;9744;49.364;7.484;2023-11-18T03:37:43;3.90;99.90
19220;DHT22;9744;49.364;7.484;2023-11-18T03:40:31;3.80;99.90
19220;DHT22;9744;49.364;7.484;2023-11-18T03:43:07;4.00;99.90
19220;DHT22;9744;49.364;7.484;2023-11-18T03:46:07;3.90;99.90
19220;DHT22;9744;49.364;7.484;2023-11-18T03:49:11;4.90;99.90
19220;DHT22;9744;49.364;7.484;2023-11-18T03:52:01;3.90;99.90
19220;DHT22;9744;49.364;7.484;2023-11-18T03:54:52;4.00;99.90
19220;DHT22;9744;49.364;7.484;2023-11-18T04:02:00;3.90;99.90
19220;DHT22;9744;49.364;7.484;2023-11-18T04:04:53;3.90;99.90
19220;DHT22;9744;49.364;7.484;2023-11-18T04:07:30;3.90;99.90
19220;DHT22;9744;49.364;7.484;2023-11-18T04:10:02;3.90;99.90
19220;DHT22;9744;49.364;7.484;2023-11-18T04:12:37;3.80;99.90
19220;DHT22;9744;49.364;7.484;2023-11-18T04:15:15;3.90;99.90
19220;DHT22;9744;49.364;7.484;2023-11-18T04:17:58;3.50;99.90
19220;DHT22;9744;49.364;7.484;2023-11-18T04:20:32;3.80;99.90
19220;DHT22;9744;49.364;7.484;2023-11-18T04:23:17;3.90;99.90
19220;DHT22;9744;49.364;7.484;2023-11-18T04:26:08;3.80;99.90
19220;DHT22;9744;49.364;7.484;2023-11-18T04:28:47;3.80;99.90
19220;DHT22;9744;49.364;7.484;2023-11-18T04:31:25;3.40;99.90
19220;DHT22;9744;49.364;7.484;2023-11-18T04:34:05;3.90;99.90
19220;DHT22;9744;49.364;7.484;2023-11-18T04:36:44;3.80;99.90
19220;DHT22;9744;49.364;7.484;2023-11-18T04:39:54;3.80;99.90
19220;DHT22;9744;49.364;7.484;2023-11-18T04:42:34;3.80;99.90
19220;DHT22;9744;49.364;7.484;2023-11-18T04:45:27;3.70;99.90
19220;DHT22;9744;49.364;7.484;2023-11-18T04:48:04;4.00;99.90
19220;DHT22;9744;49.364;7.484;2023-11-18T04:51:03;3.90;99.90
19220;DHT22;9744;49.364;7.484;2023-11-18T04:53:53;4.20;99.90
19220;DHT22;9744;49.364;7.484;2023-11-18T04:57:17;4.00;99.90
19220;DHT22;9744;49.364;7.484;2023-11-18T05:00:31;4.10;99.90
19220;DHT22;9744;49.364;7.484;2023-11-18T05:03:25;4.10;99.90
19220;DHT22;9744;49.364;7.484;2023-11-18T05:14:41;4.00;99.90
19220;DHT22;9744;49.364;7.484;2023-11-18T05:17:35;4.00;99.90
19220;DHT22;9744;49.364;7.484;2023-11-18T05:23:21;4.30;99.90
19220;DHT22;9744;49.364;7.484;2023-11-18T05:26:14;4.20;99.90
19220;DHT22;9744;49.364;7.484;2023-11-18T05:29:00;4.20;99.90
19220;DHT22;9744;49.364;7.484;2023-11-18T05:32:21;4.20;99.90
19220;DHT22;9744;49.364;7.484;2023-11-18T05:35:27;4.30;99.90
19220;DHT22;9744;49.364;7.484;2023-11-18T05:46:20;4.30;99.90
19220;DHT22;9744;49.364;7.484;2023-11-18T05:53:08;4.80;99.90
19220;DHT22;9744;49.364;7.484;2023-11-18T06:04:35;4.70;99.90
19220;DHT22;9744;49.364;7.484;2023-11-18T06:07:49;4.40;99.90
19220;DHT22;9744;49.364;7.484;2023-11-18T06:14:37;4.50;99.90
19220;DHT22;9744;49.364;7.484;2023-11-18T06:17:25;4.90;99.90
19220;DHT22;9744;49.364;7.484;2023-11-18T06:20:33;4.50;99.90
19220;DHT22;9744;49.364;7.484;2023-11-18T06:23:25;6.00;99.90
19220;DHT22;9744;49.364;7.484;2023-11-18T06:26:16;4.50;99.90
19220;DHT22;9744;49.364;7.484;2023-11-18T06:28:57;4.60;99.90
19220;DHT22;9744;49.364;7.484;2023-11-18T06:31:42;4.50;99.90
19220;DHT22;9744;49.364;7.484;2023-11-18T06:35:05;4.50;99.90
19220;DHT22;9744;49.364;7.484;2023-11-18T06:38:42;4.50;99.90
19220;DHT22;9744;49.364;7.484;2023-11-18T06:42:15;4.50;99.90
19220;DHT22;9744;49.364;7.484;2023-11-18T06:44:58;4.50;99.90
19220;DHT22;9744;49.364;7.484;2023-11-18T06:47:59;4.50;99.90
19220;DHT22;9744;49.364;7.484;2023-11-18T06:55:07;4.60;99.90
19220;DHT22;9744;49.364;7.484;2023-11-18T07:01:54;3.40;99.90
19220;DHT22;9744;49.364;7.484;2023-11-18T07:04:34;4.60;99.90
19220;DHT22;9744;49.364;7.484;2023-11-18T07:10:38;4.50;99.90
19220;DHT22;9744;49.364;7.484;2023-11-18T07:13:32;3.00;99.90
19220;DHT22;9744;49.364;7.484;2023-11-18T07:16:26;3.50;99.90
19220;DHT22;9744;49.364;7.484;2023-11-18T07:19:11;4.20;99.90
19220;DHT22;9744;49.364;7.484;2023-11-18T07:22:03;4.60;99.90
19220;DHT22;9744;49.364;7.484;2023-11-18T07:24:50;4.60;99.90
19220;DHT22;9744;49.364;7.484;2023-11-18T07:27:29;4.60;99.90
19220;DHT22;9744;49.364;7.484;2023-11-18T07:30:13;4.70;99.90
19220;DHT22;9744;49.364;7.484;2023-11-18T07:36:24;4.80;99.90
19220;DHT22;9744;49.364;7.484;2023-11-18T07:39:09;4.70;99.90
19220;DHT22;9744;49.364;7.484;2023-11-18T07:42:06;4.70;99.90
19220;DHT22;9744;49.364;7.484;2023-11-18T07:44:43;3.90;99.90
19220;DHT22;9744;49.364;7.484;2023-11-18T08:14:24;4.60;99.90
19220;DHT22;9744;49.364;7.484;2023-11-18T08:48:51;5.20;99.90
19220;DHT22;9744;49.364;7.484;2023-11-18T08:56:18;5.30;99.90
19220;DHT22;9744;49.364;7.484;2023-11-18T08:59:29;5.30;99.90
19220;DHT22;9744;49.364;7.484;2023-11-18T09:03:01;5.30;99.90
19220;DHT22;9744;49.364;7.484;2023-11-18T09:13:41;5.30;99.90
19220;DHT22;9744;49.364;7.484;2023-11-18T09:16:48;5.30;99.90
19220;DHT22;9744;49.364;7.484;2023-11-18T09:36:07;5.30;99.90
19220;DHT22;9744;49.364;7.484;2023-11-18T09:39:10;5.40;99.90
19220;DHT22;9744;49.364;7.484;2023-11-18T09:42:45;5.40;99.90
19220;DHT22;9744;49.364;7.484;2023-11-18T09:45:25;4.10;99.90
19220;DHT22;9744;49.364;7.484;2023-11-18T09:48:07;5.40;99.90
19220;DHT22;9744;49.364;7.484;2023-11-18T09:50:57;5.40;99.90
19220;DHT22;9744;49.364;7.484;2023-11-18T09:53:53;5.40;99.90
19220;DHT22;9744;49.364;7.484;2023-11-18T10:00:08;5.40;99.90
19220;DHT22;9744;49.364;7.484;2023-11-18T10:02:57;5.40;99.90
19220;DHT22;9744;49.364;7.484;2023-11-18T10:05:43;5.40;99.90
19220;DHT22;9744;49.364;7.484;2023-11-18T10:08:38;5.40;99.90
19220;DHT22;9744;49.364;7.484;2023-11-18T10:11:29;5.40;99.90
19220;DHT22;9744;49.364;7.484;2023-11-18T10:14:07;5.40;99.90
19220;DHT22;9744;49.364;7.484;2023-11-18T10:16:51;5.60;99.90
19220;DHT22;9744;49.364;7.484;2023-11-18T10:19:54;5.50;99.90
19220;DHT22;9744;49.364;7.484;2023-11-18T10:23:17;5.30;99.90
19220;DHT22;9744;49.364;7.484;2023-11-18T10:26:53;5.40;99.90
19220;DHT22;9744;49.364;7.484;2023-11-18T10:29:47;5.50;99.90
19220;DHT22;9744;49.364;7.484;2023-11-18T10:36:05;5.50;99.90
19220;DHT22;9744;49.364;7.484;2023-11-18T10:41:58;5.50;99.90
19220;DHT22;9744;49.364;7.484;2023-11-18T10:45:07;5.50;99.90
19220;DHT22;9744;49.364;7.484;2023-11-18T10:51:32;5.50;99.90
19220;DHT22;9744;49.364;7.484;2023-11-18T10:54:38;5.50;99.90
19220;DHT22;9744;49.364;7.484;2023-11-18T11:46:27;5.60;99.90
19220;DHT22;9744;49.364;7.484;2023-11-18T12:12:32;5.80;99.90
19220;DHT22;9744;49.364;7.484;2023-11-18T12:20:49;5.80;99.90
19220;DHT22;9744;49.364;7.484;2023-11-18T12:23:24;5.90;99.90
19220;DHT22;9744;49.364;7.484;2023-11-18T12:25:53;5.90;99.90
19220;DHT22;9744;49.364;7.484;2023-11-18T12:28:27;5.90;99.90
19220;DHT22;9744;49.364;7.484;2023-11-18T12:30:57;5.90;99.90
19220;DHT22;9744;49.364;7.484;2023-11-18T13:24:22;6.00;99.90
19220;DHT22;9744;49.364;7.484;2023-11-18T14:06:51;6.20;99.90
19220;DHT22;9744;49.364;7.484;2023-11-18T14:13:03;6.10;99.90
19220;DHT22;9744;49.364;7.484;2023-11-18T14:15:52;6.10;99.90
19220;DHT22;9744;49.364;7.484;2023-11-18T14:18:44;5.50;99.90
19220;DHT22;9744;49.364;7.484;2023-11-18T14:21:27;7.10;99.90
19220;DHT22;9744;49.364;7.484;2023-11-18T14:24:17;6.00;99.90
19220;DHT22;9744;49.364;7.484;2023-11-18T14:26:58;6.00;99.90
19220;DHT22;9744;49.364;7.484;2023-11-18T14:29:43;6.00;99.90
19220;DHT22;9744;49.364;7.484;2023-11-18T14:32:21;5.00;99.90
19220;DHT22;9744;49.364;7.484;2023-11-18T14:35:08;7.60;99.90
19220;DHT22;9744;49.364;7.484;2023-11-18T14:38:00;5.90;99.90
19220;DHT22;9744;49.364;7.484;2023-11-18T14:41:05;5.90;99.90
19220;DHT22;9744;49.364;7.484;2023-11-18T14:44:04;5.90;99.90
19220;DHT22;9744;49.364;7.484;2023-11-18T14:46:57;5.90;99.90
19220;DHT22;9744;49.364;7.484;2023-11-18T14:50:11;5.80;99.90
19220;DHT22;9744;49.364;7.484;2023-11-18T14:52:58;5.80;99.90
19220;DHT22;9744;49.364;7.484;2023-11-18T14:56:26;4.60;99.90
19220;DHT22;9744;49.364;7.484;2023-11-18T14:59:42;5.80;99.90
19220;DHT22;9744;49.364;7.484;2023-11-18T15:02:29;5.80;99.90
19220;DHT22;9744;49.364;7.484;2023-11-18T15:05:36;5.80;99.90
19220;DHT22;9744;49.364;7.484;2023-11-18T15:08:23;5.70;99.90
19220;DHT22;9744;49.364;7.484;2023-11-18T15:11:12;5.70;99.90
19220;DHT22;9744;49.364;7.484;2023-11-18T15:13:46;5.70;99.90
19220;DHT22;9744;49.364;7.484;2023-11-18T15:16:23;5.60;99.90
19220;DHT22;9744;49.364;7.484;2023-11-18T15:18:57;5.60;99.90
19220;DHT22;9744;49.364;7.484;2023-11-18T15:22:05;5.60;99.90
19220;DHT22;9744;49.364;7.484;2023-11-18T15:25:13;5.60;99.90
19220;DHT22;9744;49.364;7.484;2023-11-18T15:28:29;5.50;99.90
19220;DHT22;9744;49.364;7.484;2023-11-18T15:31:21;3.90;99.90
19220;DHT22;9744;49.364;7.484;2023-11-18T15:33:55;5.40;99.90
19220;DHT22;9744;49.364;7.484;2023-11-18T15:36:30;5.50;99.90
19220;DHT22;9744;49.364;7.484;2023-11-18T15:39:36;5.50;99.90
19220;DHT22;9744;49.364;7.484;2023-11-18T15:42:38;5.10;99.90
19220;DHT22;9744;49.364;7.484;2023-11-18T15:45:51;5.50;99.90
19220;DHT22;9744;49.364;7.484;2023-11-18T15:51:21;5.70;99.90
19220;DHT22;9744;49.364;7.484;2023-11-18T15:53:58;6.80;99.90
19220;DHT22;9744;49.364;7.484;2023-11-18T15:56:35;5.60;99.90
19220;DHT22;9744;49.364;7.484;2023-11-18T15:59:11;5.60;99.90
19220;DHT22;9744;49.364;7.484;2023-11-18T16:01:56;4.20;99.90
19220;DHT22;9744;49.364;7.484;2023-11-18T16:04:59;4.90;99.90
19220;DHT22;9744;49.364;7.484;2023-11-18T16:07:58;5.50;99.90
19220;DHT22;9744;49.364;7.484;2023-11-18T16:10:35;5.50;99.90
19220;DHT22;9744;49.364;7.484;2023-11-18T16:13:09;5.50;99.90
19220;DHT22;9744;49.364;7.484;2023-11-18T16:19:49;6.10;99.90
19220;DHT22;9744;49.364;7.484;2023-11-18T16:22:17;5.50;99.90
19220;DHT22;9744;49.364;7.484;2023-11-18T16:24:47;5.50;99.90
19220;DHT22;9744;49.364;7.484;2023-11-18T16:27:15;3.90;99.90
19220;DHT22;9744;49.364;7.484;2023-11-18T16:29:43;4.00;99.90
19220;DHT22;9744;49.364;7.484;2023-11-18T16:32:11;6.00;99.90
19220;DHT22;9744;49.364;7.484;2023-11-18T16:34:39;5.60;99.90
19220;DHT22;9744;49.364;7.484;2023-11-18T16:37:09;5.40;99.90
19220;DHT22;9744;49.364;7.484;2023-11-18T16:39:37;5.00;99.90
19220;DHT22;9744;49.364;7.484;2023-11-18T16:42:05;4.60;99.90
19220;DHT22;9744;49.364;7.484;2023-11-18T16:44:34;5.40;99.90
19220;DHT22;9744;49.364;7.484;2023-11-18T16:47:02;5.50;99.90
19220;DHT22;9744;49.364;7.484;2023-11-18T16:49:30;5.40;99.90
19220;DHT22;9744;49.364;7.484;2023-11-18T16:51:58;5.50;99.90
19220;DHT22;9744;49.364;7.484;2023-11-18T16:54:27;6.10;99.90
19220;DHT22;9744;49.364;7.484;2023-11-18T16:56:56;5.50;99.90
19220;DHT22;9744;49.364;7.484;2023-11-18T17:02:59;5.40;99.90
19220;DHT22;9744;49.364;7.484;2023-11-18T17:05:27;5.50;99.90
19220;DHT22;9744;49.364;7.484;2023-11-18T17:07:55;5.40;99.90
19220;DHT22;9744;49.364;7.484;2023-11-18T17:10:24;4.80;99.90
19220;DHT22;9744;49.364;7.484;2023-11-18T17:16:59;5.50;99.90
19220;DHT22;9744;49.364;7.484;2023-11-18T17:19:27;5.50;99.90
19220;DHT22;9744;49.364;7.484;2023-11-18T17:22:11;5.60;99.90
19220;DHT22;9744;49.364;7.484;2023-11-18T17:24:39;5.60;99.90
19220;DHT22;9744;49.364;7.484;2023-11-18T17:27:11;5.50;99.90
19220;DHT22;9744;49.364;7.484;2023-11-18T17:29:40;5.60;99.90
19220;DHT22;9744;49.364;7.484;2023-11-18T17:32:12;5.50;99.90
19220;DHT22;9744;49.364;7.484;2023-11-18T17:34:39;5.60;99.90
19220;DHT22;9744;49.364;7.484;2023-11-18T17:37:09;5.60;99.90
19220;DHT22;9744;49.364;7.484;2023-11-18T17:39:38;5.70;99.90
19220;DHT22;9744;49.364;7.484;2023-11-18T17:42:12;5.70;99.90
19220;DHT22;9744;49.364;7.484;2023-11-18T17:44:41;5.60;99.90
19220;DHT22;9744;49.364;7.484;2023-11-18T17:47:09;6.30;99.90
19220;DHT22;9744;49.364;7.484;2023-11-18T17:53:39;5.60;99.90
19220;DHT22;9744;49.364;7.484;2023-11-18T17:56:07;5.60;99.90
19220;DHT22;9744;49.364;7.484;2023-11-18T17:58:37;5.60;99.90
19220;DHT22;9744;49.364;7.484;2023-11-18T18:01:14;5.70;99.90
19220;DHT22;9744;49.364;7.484;2023-11-18T18:03:42;5.70;99.90
19220;DHT22;9744;49.364;7.484;2023-11-18T18:06:12;5.70;99.90
19220;DHT22;9744;49.364;7.484;2023-11-18T18:08:39;5.70;99.90
19220;DHT22;9744;49.364;7.484;2023-11-18T18:14:41;5.90;99.90
19220;DHT22;9744;49.364;7.484;2023-11-18T18:17:09;5.70;99.90
19220;DHT22;9744;49.364;7.484;2023-11-18T18:19:36;5.70;99.90
19220;DHT22;9744;49.364;7.484;2023-11-18T18:22:11;6.70;99.90
19220;DHT22;9744;49.364;7.484;2023-11-18T18:24:39;5.30;99.90
19220;DHT22;9744;49.364;7.484;2023-11-18T18:27:09;4.40;99.90
19220;DHT22;9744;49.364;7.484;2023-11-18T18:29:37;5.00;99.90
19220;DHT22;9744;49.364;7.484;2023-11-18T18:32:13;5.60;99.90
19220;DHT22;9744;49.364;7.484;2023-11-18T18:37:58;5.70;99.90
19220;DHT22;9744;49.364;7.484;2023-11-18T18:40:29;5.70;99.90
19220;DHT22;9744;49.364;7.484;2023-11-18T18:46:58;5.70;99.90
19220;DHT22;9744;49.364;7.484;2023-11-18T18:49:28;5.70;99.90
19220;DHT22;9744;49.364;7.484;2023-11-18T18:52:23;5.70;99.90
19220;DHT22;9744;49.364;7.484;2023-11-18T18:58:45;5.80;99.90
19220;DHT22;9744;49.364;7.484;2023-11-18T19:01:14;5.80;99.90
19220;DHT22;9744;49.364;7.484;2023-11-18T19:03:42;5.80;99.90
19220;DHT22;9744;49.364;7.484;2023-11-18T19:06:12;5.80;99.90
19220;DHT22;9744;49.364;7.484;2023-11-18T19:08:40;5.80;99.90
19220;DHT22;9744;49.364;7.484;2023-11-18T19:11:08;5.80;99.90
19220;DHT22;9744;49.364;7.484;2023-11-18T19:13:35;5.80;99.90
19220;DHT22;9744;49.364;7.484;2023-11-18T19:16:03;5.80;99.90
19220;DHT22;9744;49.364;7.484;2023-11-18T19:18:30;5.80;99.90
19220;DHT22;9744;49.364;7.484;2023-11-18T19:20:58;5.90;99.90
19220;DHT22;9744;49.364;7.484;2023-11-18T19:23:26;5.90;99.90
19220;DHT22;9744;49.364;7.484;2023-11-18T19:25:53;5.90;99.90
19220;DHT22;9744;49.364;7.484;2023-11-18T19:28:21;5.90;99.90
19220;DHT22;9744;49.364;7.484;2023-11-18T19:30:48;5.90;99.90
19220;DHT22;9744;49.364;7.484;2023-11-18T19:33:16;5.90;99.90
19220;DHT22;9744;49.364;7.484;2023-11-18T19:35:43;5.90;99.90
19220;DHT22;9744;49.364;7.484;2023-11-18T19:38:11;5.90;99.90
19220;DHT22;9744;49.364;7.484;2023-11-18T19:44:42;6.00;99.90
19220;DHT22;9744;49.364;7.484;2023-11-18T19:47:09;6.00;99.90
19220;DHT22;9744;49.364;7.484;2023-11-18T19:49:38;6.00;99.90
19220;DHT22;9744;49.364;7.484;2023-11-18T19:52:07;6.00;99.90
19220;DHT22;9744;49.364;7.484;2023-11-18T19:54:35;6.00;99.90
19220;DHT22;9744;49.364;7.484;2023-11-18T19:57:04;6.10;99.90
19220;DHT22;9744;49.364;7.484;2023-11-18T19:59:32;6.00;99.90
19220;DHT22;9744;49.364;7.484;2023-11-18T20:02:01;6.10;99.90
19220;DHT22;9744;49.364;7.484;2023-11-18T20:04:29;6.00;99.90
19220;DHT22;9744;49.364;7.484;2023-11-18T20:06:57;6.00;99.90
19220;DHT22;9744;49.364;7.484;2023-11-18T20:13:20;6.10;99.90
19220;DHT22;9744;49.364;7.484;2023-11-18T20:15:49;6.10;99.90
19220;DHT22;9744;49.364;7.484;2023-11-18T20:23:05;6.10;99.90
19220;DHT22;9744;49.364;7.484;2023-11-18T20:25:35;6.20;99.90
19220;DHT22;9744;49.364;7.484;2023-11-18T20:32:05;6.20;99.90
19220;DHT22;9744;49.364;7.484;2023-11-18T20:34:33;6.20;99.90
19220;DHT22;9744;49.364;7.484;2023-11-18T20:37:02;6.30;99.90
19220;DHT22;9744;49.364;7.484;2023-11-18T20:39:35;6.20;99.90
19220;DHT22;9744;49.364;7.484;2023-11-18T20:42:12;6.20;99.90
19220;DHT22;9744;49.364;7.484;2023-11-18T20:44:40;6.80;99.90
19220;DHT22;9744;49.364;7.484;2023-11-18T20:47:11;6.30;99.90
19220;DHT22;9744;49.364;7.484;2023-11-18T20:49:39;6.20;99.90
19220;DHT22;9744;49.364;7.484;2023-11-18T20:52:07;5.70;99.90
19220;DHT22;9744;49.364;7.484;2023-11-18T20:54:37;6.20;99.90
19220;DHT22;9744;49.364;7.484;2023-11-18T20:57:05;6.50;99.90
19220;DHT22;9744;49.364;7.484;2023-11-18T20:59:32;6.20;99.90
19220;DHT22;9744;49.364;7.484;2023-11-18T21:02:00;6.20;99.90
19220;DHT22;9744;49.364;7.484;2023-11-18T21:04:29;6.40;99.90
19220;DHT22;9744;49.364;7.484;2023-11-18T21:06:57;6.30;99.90
19220;DHT22;9744;49.364;7.484;2023-11-18T21:09:25;6.20;99.90
19220;DHT22;9744;49.364;7.484;2023-11-18T21:11:54;6.30;99.90
19220;DHT22;9744;49.364;7.484;2023-11-18T21:14:25;6.30;99.90
19220;DHT22;9744;49.364;7.484;2023-11-18T21:16:54;6.30;99.90
19220;DHT22;9744;49.364;7.484;2023-11-18T21:19:24;6.30;99.90
19220;DHT22;9744;49.364;7.484;2023-11-18T21:21:52;6.40;99.90
19220;DHT22;9744;49.364;7.484;2023-11-18T21:28:18;6.30;99.90
19220;DHT22;9744;49.364;7.484;2023-11-18T21:30:47;6.30;99.90
19220;DHT22;9744;49.364;7.484;2023-11-18T21:33:15;6.40;99.90
19220;DHT22;9744;49.364;7.484;2023-11-18T21:35:43;6.30;99.90
19220;DHT22;9744;49.364;7.484;2023-11-18T21:38:10;6.30;99.90
19220;DHT22;9744;49.364;7.484;2023-11-18T21:40:39;6.50;99.90
19220;DHT22;9744;49.364;7.484;2023-11-18T21:43:08;6.40;99.90
19220;DHT22;9744;49.364;7.484;2023-11-18T21:49:38;6.40;99.90
19220;DHT22;9744;49.364;7.484;2023-11-18T21:52:11;6.40;99.90
19220;DHT22;9744;49.364;7.484;2023-11-18T21:54:42;6.30;99.90
19220;DHT22;9744;49.364;7.484;2023-11-18T21:57:15;6.40;99.90
19220;DHT22;9744;49.364;7.484;2023-11-18T21:59:45;6.40;99.90
19220;DHT22;9744;49.364;7.484;2023-11-18T22:06:13;6.60;99.90
19220;DHT22;9744;49.364;7.484;2023-11-18T22:08:44;6.50;99.90
19220;DHT22;9744;49.364;7.484;2023-11-18T22:11:11;7.80;99.90
19220;DHT22;9744;49.364;7.484;2023-11-18T22:13:47;6.40;99.90
19220;DHT22;9744;49.364;7.484;2023-11-18T22:16:16;5.80;99.90
19220;DHT22;9744;49.364;7.484;2023-11-18T22:18:45;6.00;99.90
19220;DHT22;9744;49.364;7.484;2023-11-18T22:21:14;6.40;99.90
19220;DHT22;9744;49.364;7.484;2023-11-18T22:23:42;6.40;99.90
19220;DHT22;9744;49.364;7.484;2023-11-18T22:26:10;6.60;99.90
19220;DHT22;9744;49.364;7.484;2023-11-18T22:28:38;6.50;99.90
19220;DHT22;9744;49.364;7.484;2023-11-18T22:31:06;6.40;99.90
19220;DHT22;9744;49.364;7.484;2023-11-18T22:33:34;6.50;99.90
19220;DHT22;9744;49.364;7.484;2023-11-18T22:36:02;6.50;99.90
19220;DHT22;9744;49.364;7.484;2023-11-18T22:38:34;6.50;99.90
19220;DHT22;9744;49.364;7.484;2023-11-18T22:41:04;6.50;99.90
19220;DHT22;9744;49.364;7.484;2023-11-18T22:43:36;6.60;99.90
19220;DHT22;9744;49.364;7.484;2023-11-18T22:46:04;6.70;99.90
19220;DHT22;9744;49.364;7.484;2023-11-18T22:48:33;6.60;99.90
19220;DHT22;9744;49.364;7.484;2023-11-18T22:51:02;6.60;99.90
19220;DHT22;9744;49.364;7.484;2023-11-18T22:53:31;6.60;99.90
19220;DHT22;9744;49.364;7.484;2023-11-18T22:56:01;6.60;99.90
19220;DHT22;9744;49.364;7.484;2023-11-18T22:58:30;6.60;99.90
19220;DHT22;9744;49.364;7.484;2023-11-18T23:00:59;7.00;99.90
19220;DHT22;9744;49.364;7.484;2023-11-18T23:03:29;5.20;99.90
19220;DHT22;9744;49.364;7.484;2023-11-18T23:06:28;6.70;99.90
19220;DHT22;9744;49.364;7.484;2023-11-18T23:08:56;6.70;99.90
19220;DHT22;9744;49.364;7.484;2023-11-18T23:11:26;6.70;99.90
19220;DHT22;9744;49.364;7.484;2023-11-18T23:13:54;6.70;99.90
19220;DHT22;9744;49.364;7.484;2023-11-18T23:16:27;6.70;99.90
19220;DHT22;9744;49.364;7.484;2023-11-18T23:19:03;6.80;99.90
19220;DHT22;9744;49.364;7.484;2023-11-18T23:21:32;6.80;99.90
19220;DHT22;9744;49.364;7.484;2023-11-18T23:27:52;6.80;99.90
19220;DHT22;9744;49.364;7.484;2023-11-18T23:30:20;6.70;99.90
19220;DHT22;9744;49.364;7.484;2023-11-18T23:32:48;6.90;99.90
19220;DHT22;9744;49.364;7.484;2023-11-18T23:35:16;6.90;99.90
19220;DHT22;9744;49.364;7.484;2023-11-18T23:37:44;6.80;99.90
19220;DHT22;9744;49.364;7.484;2023-11-18T23:40:12;6.90;99.90
19220;DHT22;9744;49.364;7.484;2023-11-18T23:42:40;6.90;99.90
19220;DHT22;9744;49.364;7.484;2023-11-18T23:45:10;6.90;99.90
19220;DHT22;9744;49.364;7.484;2023-11-18T23:47:39;6.90;99.90
19220;DHT22;9744;49.364;7.484;2023-11-18T23:50:08;6.90;99.90
19220;DHT22;9744;49.364;7.484;2023-11-18T23:52:37;6.90;99.90
19220;DHT22;9744;49.364;7.484;2023-11-18T23:59:05;7.10;99.90
